Time;durP1;ratioP1;P1;durP2;ratioP2;P2;SDS_P1;SDS_P2;PMS_P1;PMS_P2;Temp;Humidity;BMP_temperature;BMP_pressure;BME280_temperature;BME280_humidity;BME280_pressure;Samples;Min_cycle;Max_cycle;Signal;HPM_P1;HPM_P2
2021/08/09 00:01:13;;;;;;;11.27;6.80;;;;;;;;;;5099930;28;20456;-55
2021/08/09 00:03:41;;;;;;;9.93;4.43;;;;;;;;;;5112842;28;20445;-54
2021/08/09 00:06:09;;;;;;;6.57;3.97;;;;;;;;;;5112689;28;20631;-54
2021/08/09 00:08:38;;;;;;;6.13;3.70;;;;;;;;;;5112910;28;20481;-57
2021/08/09 00:11:05;;;;;;;5.40;2.13;;;;;;;;;;5112893;28;20457;-51
2021/08/09 00:13:35;;;;;;;7.70;2.27;;;;;;;;;;5113185;28;20453;-58
2021/08/09 00:16:17;;;;;;;7.77;5.87;;;;;;;;;;5112898;28;20457;-53
2021/08/09 00:18:48;;;;;;;10.73;6.27;;;;;;;;;;5117095;28;20426;-51
2021/08/09 00:21:16;;;;;;;5.50;3.13;;;;;;;;;;5133475;28;20773;-54
2021/08/09 00:23:51;;;;;;;7.77;3.00;;;;;;;;;;5122454;28;20530;-53
2021/08/09 00:26:20;;;;;;;7.17;3.40;;;;;;;;;;5112570;28;20489;-54
2021/08/09 00:28:48;;;;;;;5.60;2.93;;;;;;;;;;5111462;28;20451;-57
2021/08/09 00:31:24;;;;;;;19.33;10.60;;;;;;;;;;5112957;28;20499;-51
2021/08/09 00:33:53;;;;;;;12.90;7.90;;;;;;;;;;5112627;28;20840;-53
2021/08/09 00:36:22;;;;;;;10.83;6.47;;;;;;;;;;5113126;28;20458;-52
2021/08/09 00:38:50;;;;;;;8.10;4.43;;;;;;;;;;5112137;28;20459;-53
2021/08/09 00:41:20;;;;;;;12.57;8.00;;;;;;;;;;5107454;28;20462;-51
2021/08/09 00:43:48;;;;;;;9.57;5.57;;;;;;;;;;5075625;28;20466;-52
2021/08/09 00:46:34;;;;;;;9.47;5.90;;;;;;;;;;5093332;28;20407;-55
2021/08/09 00:49:03;;;;;;;4.37;2.53;;;;;;;;;;5093080;28;20465;-53
2021/08/09 00:51:32;;;;;;;10.60;4.87;;;;;;;;;;5093631;28;20471;-51
2021/08/09 00:54:10;;;;;;;11.13;5.43;;;;;;;;;;5092778;28;20528;-53
2021/08/09 00:56:38;;;;;;;8.80;4.50;;;;;;;;;;5108911;28;20515;-53
2021/08/09 00:59:05;;;;;;;6.10;3.67;;;;;;;;;;5115779;28;20558;-55
2021/08/09 01:01:33;;;;;;;7.57;3.43;;;;;;;;;;5106829;28;20456;-50
2021/08/09 01:04:00;;;;;;;7.93;2.90;;;;;;;;;;5116356;28;20516;-55
2021/08/09 01:06:36;;;;;;;7.70;4.37;;;;;;;;;;5101409;28;20450;-54
2021/08/09 01:09:08;;;;;;;5.07;2.97;;;;;;;;;;5103890;28;20466;-51
2021/08/09 01:11:37;;;;;;;6.57;2.53;;;;;;;;;;5104874;28;20460;-52
2021/08/09 01:14:13;;;;;;;7.37;3.90;;;;;;;;;;5102152;28;20456;-52
2021/08/09 01:16:42;;;;;;;6.27;2.80;;;;;;;;;;5087784;28;20874;-53
2021/08/09 01:19:17;;;;;;;6.33;2.40;;;;;;;;;;5096501;28;20571;-53
2021/08/09 01:21:46;;;;;;;6.50;2.73;;;;;;;;;;5096723;28;20429;-53
2021/08/09 01:24:20;;;;;;;5.10;2.77;;;;;;;;;;5116246;28;20443;-49
2021/08/09 01:27:07;;;;;;;7.23;3.67;;;;;;;;;;5110891;28;20470;-50
2021/08/09 01:29:43;;;;;;;17.00;9.20;;;;;;;;;;5109624;28;20459;-53
2021/08/09 01:32:11;;;;;;;9.90;5.40;;;;;;;;;;5106110;28;20505;-53
2021/08/09 01:34:39;;;;;;;5.73;3.40;;;;;;;;;;5094600;28;20515;-52
2021/08/09 01:37:07;;;;;;;4.60;2.23;;;;;;;;;;5100965;28;20459;-56
2021/08/09 01:39:41;;;;;;;5.47;3.00;;;;;;;;;;5115539;28;20459;-58
2021/08/09 01:42:08;;;;;;;3.70;2.00;;;;;;;;;;5096965;28;20495;-55
2021/08/09 01:44:37;;;;;;;5.70;3.57;;;;;;;;;;5096536;28;20519;-56
2021/08/09 01:47:08;;;;;;;11.60;5.50;;;;;;;;;;5116196;28;20524;-54
2021/08/09 01:49:35;;;;;;;5.47;2.60;;;;;;;;;;5115381;28;20505;-53
2021/08/09 01:52:03;;;;;;;5.13;1.80;;;;;;;;;;5115116;28;20474;-54
2021/08/09 01:54:34;;;;;;;4.83;2.10;;;;;;;;;;5115080;28;20484;-52
2021/08/09 01:57:02;;;;;;;12.13;3.77;;;;;;;;;;5115667;28;20479;-50
2021/08/09 01:59:29;;;;;;;4.60;2.13;;;;;;;;;;5115322;28;20607;-55
2021/08/09 02:01:58;;;;;;;5.90;2.40;;;;;;;;;;5115215;28;20626;-55
2021/08/09 02:04:26;;;;;;;6.27;1.80;;;;;;;;;;5114738;28;20573;-53
2021/08/09 02:07:03;;;;;;;3.80;2.07;;;;;;;;;;5115305;28;20432;-54
2021/08/09 02:09:31;;;;;;;26.57;20.23;;;;;;;;;;5094969;28;20456;-53
2021/08/09 02:12:02;;;;;;;7.10;2.60;;;;;;;;;;5110701;28;20479;-53
2021/08/09 02:14:32;;;;;;;5.27;2.43;;;;;;;;;;5109407;28;20466;-51
2021/08/09 02:17:06;;;;;;;4.50;2.33;;;;;;;;;;5106949;28;20456;-51
2021/08/09 02:19:38;;;;;;;5.70;2.50;;;;;;;;;;5107718;28;20661;-55
2021/08/09 02:22:10;;;;;;;8.17;2.57;;;;;;;;;;5106438;28;20473;-54
2021/08/09 02:24:49;;;;;;;3.40;1.97;;;;;;;;;;5101094;28;20519;-55
2021/08/09 02:27:19;;;;;;;3.90;1.53;;;;;;;;;;5101464;28;20529;-54
2021/08/09 02:29:48;;;;;;;5.93;2.43;;;;;;;;;;5108656;28;20464;-52
2021/08/09 02:32:18;;;;;;;4.70;3.17;;;;;;;;;;5108120;28;20455;-54
2021/08/09 02:34:46;;;;;;;6.90;4.50;;;;;;;;;;5103853;28;20503;-52
2021/08/09 02:37:13;;;;;;;7.40;4.67;;;;;;;;;;5106780;28;20450;-55
2021/08/09 02:39:43;;;;;;;3.77;1.70;;;;;;;;;;5104750;28;20477;-53
2021/08/09 02:42:11;;;;;;;5.83;2.27;;;;;;;;;;5107189;28;20501;-51
2021/08/09 02:44:39;;;;;;;4.00;1.80;;;;;;;;;;5106808;28;20470;-51
2021/08/09 02:47:07;;;;;;;3.50;2.10;;;;;;;;;;5108168;28;20459;-56
2021/08/09 02:49:36;;;;;;;4.47;2.20;;;;;;;;;;5100559;28;20460;-53
2021/08/09 02:52:06;;;;;;;6.40;2.37;;;;;;;;;;5110480;28;20510;-52
2021/08/09 02:54:35;;;;;;;4.03;2.23;;;;;;;;;;5104103;28;20467;-50
2021/08/09 02:57:03;;;;;;;5.27;2.80;;;;;;;;;;5109316;28;20491;-55
2021/08/09 02:59:37;;;;;;;4.77;2.40;;;;;;;;;;5110913;28;20489;-51
2021/08/09 03:02:07;;;;;;;3.33;1.90;;;;;;;;;;5107648;28;20495;-54
2021/08/09 03:04:37;;;;;;;4.67;2.53;;;;;;;;;;5109920;28;20459;-53
2021/08/09 03:07:17;;;;;;;4.43;2.67;;;;;;;;;;5114795;28;20428;-54
2021/08/09 03:09:46;;;;;;;4.73;2.10;;;;;;;;;;5106129;28;20440;-54
2021/08/09 03:12:16;;;;;;;4.33;1.93;;;;;;;;;;5098475;28;20495;-52
2021/08/09 03:15:02;;;;;;;6.00;3.00;;;;;;;;;;5093584;28;20451;-53
2021/08/09 03:17:30;;;;;;;5.33;2.80;;;;;;;;;;5096527;28;21053;-51
2021/08/09 03:19:58;;;;;;;6.17;2.87;;;;;;;;;;5125758;28;20508;-52
2021/08/09 03:22:26;;;;;;;6.37;2.63;;;;;;;;;;5113898;28;20440;-53
2021/08/09 03:25:04;;;;;;;5.40;2.00;;;;;;;;;;5113796;28;20443;-55
2021/08/09 03:27:44;;;;;;;4.30;2.10;;;;;;;;;;5113354;28;20478;-53
2021/08/09 03:30:11;;;;;;;6.13;2.27;;;;;;;;;;5113415;28;20467;-52
2021/08/09 03:32:39;;;;;;;3.73;1.90;;;;;;;;;;5113692;28;20455;-49
2021/08/09 03:35:17;;;;;;;5.40;2.10;;;;;;;;;;5112892;28;20491;-53
2021/08/09 03:37:44;;;;;;;4.17;1.90;;;;;;;;;;5111073;28;20491;-49
2021/08/09 03:40:11;;;;;;;5.23;2.60;;;;;;;;;;5113559;28;20439;-53
2021/08/09 03:42:45;;;;;;;7.83;2.50;;;;;;;;;;5113329;28;20459;-51
2021/08/09 03:45:12;;;;;;;8.90;2.87;;;;;;;;;;5113182;28;20455;-49
2021/08/09 03:47:40;;;;;;;4.63;2.70;;;;;;;;;;5104635;28;20487;-55
2021/08/09 03:50:24;;;;;;;6.13;3.33;;;;;;;;;;5093229;28;20456;-51
2021/08/09 03:52:53;;;;;;;5.73;2.47;;;;;;;;;;5106501;28;20459;-50
2021/08/09 03:55:21;;;;;;;4.50;2.57;;;;;;;;;;5113438;28;20495;-53
2021/08/09 03:57:55;;;;;;;4.03;2.20;;;;;;;;;;5095709;28;20472;-55
2021/08/09 04:00:23;;;;;;;4.77;2.90;;;;;;;;;;5093790;28;20451;-53
2021/08/09 04:02:52;;;;;;;7.57;3.37;;;;;;;;;;5113425;28;20454;-56
2021/08/09 04:05:26;;;;;;;7.93;3.60;;;;;;;;;;5107779;28;20456;-51
2021/08/09 04:07:54;;;;;;;4.60;2.40;;;;;;;;;;5092603;28;20435;-55
2021/08/09 04:10:21;;;;;;;3.33;2.07;;;;;;;;;;5093598;28;20467;-50
2021/08/09 04:12:51;;;;;;;4.73;2.80;;;;;;;;;;5092888;28;20515;-51
2021/08/09 04:15:19;;;;;;;7.30;2.83;;;;;;;;;;5091405;28;20488;-49
2021/08/09 04:17:46;;;;;;;4.20;2.37;;;;;;;;;;5105448;28;20471;-53
2021/08/09 04:20:17;;;;;;;5.97;3.10;;;;;;;;;;5121119;28;20454;-55
2021/08/09 04:22:46;;;;;;;5.33;3.13;;;;;;;;;;5127091;28;20459;-53
2021/08/09 04:25:13;;;;;;;6.50;2.57;;;;;;;;;;5110034;28;20459;-53
2021/08/09 04:27:59;;;;;;;5.90;1.80;;;;;;;;;;5111442;28;20474;-54
2021/08/09 04:30:26;;;;;;;7.77;2.50;;;;;;;;;;5111489;28;20452;-57
2021/08/09 04:32:54;;;;;;;6.30;2.50;;;;;;;;;;5114514;28;20462;-53
2021/08/09 04:35:48;;;;;;;9.10;2.70;;;;;;;;;;5101421;28;20522;-57
2021/08/09 04:38:23;;;;;;;11.70;2.70;;;;;;;;;;5107270;28;20484;-56
2021/08/09 04:40:50;;;;;;;4.43;2.20;;;;;;;;;;5116343;28;20454;-57
2021/08/09 04:43:20;;;;;;;5.43;2.03;;;;;;;;;;5109415;28;20722;-52
2021/08/09 04:45:48;;;;;;;6.00;3.43;;;;;;;;;;5117119;28;20859;-53
2021/08/09 04:48:16;;;;;;;5.87;3.53;;;;;;;;;;5117874;28;20434;-56
2021/08/09 04:50:44;;;;;;;5.80;2.87;;;;;;;;;;5116395;28;20459;-55
2021/08/09 04:53:16;;;;;;;6.37;2.53;;;;;;;;;;5117336;28;20471;-54
2021/08/09 04:55:46;;;;;;;4.80;2.20;;;;;;;;;;5116451;28;20494;-54
2021/08/09 04:58:25;;;;;;;6.67;3.40;;;;;;;;;;5117051;28;20465;-53
2021/08/09 05:00:52;;;;;;;4.67;2.13;;;;;;;;;;5117103;28;20443;-52
2021/08/09 05:03:21;;;;;;;6.47;3.20;;;;;;;;;;5114605;28;20523;-56
2021/08/09 05:05:48;;;;;;;7.90;3.00;;;;;;;;;;5116311;28;20924;-53
2021/08/09 05:08:25;;;;;;;5.80;2.40;;;;;;;;;;5116951;28;20437;-57
2021/08/09 05:10:54;;;;;;;4.87;2.27;;;;;;;;;;5123144;28;20455;-54
2021/08/09 05:13:21;;;;;;;6.53;2.30;;;;;;;;;;5117344;28;20459;-50
2021/08/09 05:15:51;;;;;;;9.43;3.40;;;;;;;;;;5116483;28;20501;-55
2021/08/09 05:18:25;;;;;;;10.70;2.60;;;;;;;;;;5109750;28;20450;-54
2021/08/09 05:20:55;;;;;;;6.80;3.33;;;;;;;;;;5109396;28;20532;-55
2021/08/09 05:23:24;;;;;;;5.93;3.00;;;;;;;;;;5116782;28;20443;-54
2021/08/09 05:25:52;;;;;;;6.70;2.60;;;;;;;;;;5117094;28;20433;-53
2021/08/09 05:28:20;;;;;;;5.63;2.63;;;;;;;;;;5115579;28;20461;-52
2021/08/09 05:30:55;;;;;;;7.83;3.10;;;;;;;;;;5115163;28;20476;-54
2021/08/09 05:33:22;;;;;;;6.10;3.73;;;;;;;;;;5114933;28;20440;-53
2021/08/09 05:35:50;;;;;;;6.43;3.20;;;;;;;;;;5114584;28;20698;-55
2021/08/09 05:38:17;;;;;;;6.40;3.07;;;;;;;;;;5114693;28;20475;-55
2021/08/09 05:40:44;;;;;;;6.20;3.13;;;;;;;;;;5114221;28;20502;-54
2021/08/09 05:43:11;;;;;;;9.83;3.30;;;;;;;;;;5112987;28;20452;-52
2021/08/09 05:45:50;;;;;;;5.30;2.50;;;;;;;;;;5113980;28;20455;-51
2021/08/09 05:48:17;;;;;;;10.63;2.90;;;;;;;;;;5114090;28;20488;-53
2021/08/09 05:50:44;;;;;;;4.23;2.33;;;;;;;;;;5113993;28;20487;-53
2021/08/09 05:53:17;;;;;;;5.70;2.27;;;;;;;;;;5115688;28;20470;-56
2021/08/09 05:55:45;;;;;;;6.00;2.83;;;;;;;;;;5124490;28;20489;-54
2021/08/09 05:58:20;;;;;;;4.67;2.57;;;;;;;;;;5111308;28;20449;-52
2021/08/09 06:00:54;;;;;;;5.70;2.03;;;;;;;;;;5114914;28;20491;-53
2021/08/09 06:03:23;;;;;;;10.73;3.80;;;;;;;;;;5095363;28;20491;-54
2021/08/09 06:05:52;;;;;;;6.57;2.40;;;;;;;;;;5112020;28;20476;-55
2021/08/09 06:08:19;;;;;;;4.77;2.47;;;;;;;;;;5109281;28;20461;-51
2021/08/09 06:10:47;;;;;;;7.73;3.00;;;;;;;;;;5112859;28;20447;-56
2021/08/09 06:13:18;;;;;;;6.77;2.73;;;;;;;;;;5115264;28;20457;-55
2021/08/09 06:15:45;;;;;;;6.10;2.80;;;;;;;;;;5114693;28;20528;-54
2021/08/09 06:18:14;;;;;;;5.03;1.80;;;;;;;;;;5108199;28;20454;-54
2021/08/09 06:20:43;;;;;;;12.30;3.20;;;;;;;;;;5107099;28;20473;-57
2021/08/09 06:23:14;;;;;;;7.33;2.80;;;;;;;;;;5115359;28;20491;-54
2021/08/09 06:25:43;;;;;;;4.93;2.20;;;;;;;;;;5112538;28;20482;-57
2021/08/09 06:28:12;;;;;;;7.60;2.43;;;;;;;;;;5112585;28;20473;-57
2021/08/09 06:30:56;;;;;;;11.60;2.83;;;;;;;;;;5110533;28;20543;-57
2021/08/09 06:33:35;;;;;;;10.23;3.73;;;;;;;;;;5128990;28;20463;-57
2021/08/09 06:36:03;;;;;;;4.43;2.30;;;;;;;;;;5106700;28;20678;-56
2021/08/09 06:38:38;;;;;;;5.87;2.20;;;;;;;;;;5111362;28;20451;-58
2021/08/09 06:41:22;;;;;;;6.30;2.10;;;;;;;;;;5112160;28;20446;-54
2021/08/09 06:44:06;;;;;;;6.03;1.77;;;;;;;;;;5109835;28;20501;-54
2021/08/09 06:46:39;;;;;;;6.43;2.80;;;;;;;;;;5112127;28;20485;-55
2021/08/09 06:49:11;;;;;;;5.80;2.70;;;;;;;;;;5107809;28;20515;-55
2021/08/09 06:52:00;;;;;;;3.70;2.33;;;;;;;;;;5088722;28;20477;-56
2021/08/09 06:54:36;;;;;;;3.10;2.00;;;;;;;;;;5114341;28;20444;-56
2021/08/09 06:57:08;;;;;;;8.90;3.20;;;;;;;;;;5111316;28;20652;-54
2021/08/09 06:59:39;;;;;;;3.90;2.53;;;;;;;;;;5113543;28;20497;-56
2021/08/09 07:02:18;;;;;;;4.60;1.93;;;;;;;;;;5110768;28;20483;-54
2021/08/09 07:04:46;;;;;;;4.97;2.33;;;;;;;;;;5112076;28;20471;-57
2021/08/09 07:07:14;;;;;;;6.87;2.03;;;;;;;;;;5098639;28;20604;-53
2021/08/09 07:09:41;;;;;;;7.37;2.77;;;;;;;;;;5092481;28;20460;-58
2021/08/09 07:12:17;;;;;;;5.73;2.00;;;;;;;;;;5093966;28;20519;-57
2021/08/09 07:18:06;;;;;;;6.47;2.40;;;;;;;;;;5092303;28;20487;-55
2021/08/09 07:20:49;;;;;;;4.60;1.60;;;;;;;;;;5092930;28;20515;-53
2021/08/09 07:23:16;;;;;;;4.80;1.70;;;;;;;;;;5091551;28;20468;-54
2021/08/09 07:25:44;;;;;;;5.87;2.07;;;;;;;;;;5091931;28;20635;-54
2021/08/09 07:28:41;;;;;;;3.67;1.97;;;;;;;;;;5095597;28;20443;-57
2021/08/09 07:34:13;;;;;;;3.43;1.90;;;;;;;;;;5110429;28;20474;-57
2021/08/09 07:36:44;;;;;;;3.53;1.40;;;;;;;;;;5114317;28;20519;-53
2021/08/09 07:39:12;;;;;;;5.50;2.57;;;;;;;;;;5107100;28;20445;-55
2021/08/09 07:41:59;;;;;;;5.10;1.90;;;;;;;;;;5114088;28;20438;-55
2021/08/09 07:44:29;;;;;;;3.80;1.67;;;;;;;;;;5114128;28;20459;-57
2021/08/09 07:47:00;;;;;;;3.57;1.60;;;;;;;;;;5105352;28;20487;-56
2021/08/09 07:49:36;;;;;;;5.30;1.80;;;;;;;;;;5113826;28;20502;-54
2021/08/09 07:52:05;;;;;;;7.83;1.93;;;;;;;;;;5113095;28;20494;-53
2021/08/09 07:54:45;;;;;;;5.40;1.83;;;;;;;;;;5108660;28;20460;-55
2021/08/09 07:57:16;;;;;;;4.13;1.90;;;;;;;;;;5110308;28;20479;-57
2021/08/09 07:59:44;;;;;;;5.17;2.10;;;;;;;;;;5106825;28;20475;-57
2021/08/09 08:02:33;;;;;;;5.37;1.73;;;;;;;;;;5092848;28;20423;-54
2021/08/09 08:05:01;;;;;;;3.67;1.83;;;;;;;;;;5094645;28;20459;-57
2021/08/09 08:07:31;;;;;;;4.97;1.70;;;;;;;;;;5094556;28;20451;-51
2021/08/09 08:10:05;;;;;;;4.97;2.10;;;;;;;;;;5092213;28;20460;-56
2021/08/09 08:12:33;;;;;;;4.40;1.63;;;;;;;;;;5092645;28;20515;-56
2021/08/09 08:15:01;;;;;;;6.17;1.60;;;;;;;;;;5111591;28;20575;-56
2021/08/09 08:17:38;;;;;;;3.83;1.70;;;;;;;;;;5110942;28;20519;-56
2021/08/09 08:20:06;;;;;;;5.60;2.13;;;;;;;;;;5110757;28;20443;-56
2021/08/09 08:22:35;;;;;;;3.80;2.23;;;;;;;;;;5110876;28;20457;-55
2021/08/09 08:25:08;;;;;;;5.70;2.40;;;;;;;;;;5110528;28;20475;-57
2021/08/09 08:27:36;;;;;;;7.20;2.23;;;;;;;;;;5099629;28;20458;-55
2021/08/09 08:30:03;;;;;;;3.80;2.03;;;;;;;;;;5103153;28;20472;-56
2021/08/09 08:32:31;;;;;;;3.90;1.30;;;;;;;;;;5112551;28;20451;-54
2021/08/09 08:34:59;;;;;;;4.00;1.53;;;;;;;;;;5107688;28;20610;-55
2021/08/09 08:37:54;;;;;;;5.70;2.33;;;;;;;;;;5094758;28;20515;-55
2021/08/09 08:40:24;;;;;;;4.23;2.17;;;;;;;;;;5095635;28;20456;-52
2021/08/09 08:42:52;;;;;;;5.10;1.33;;;;;;;;;;5107316;28;20439;-56
2021/08/09 08:45:29;;;;;;;4.23;1.40;;;;;;;;;;5103951;28;20471;-55
2021/08/09 08:47:56;;;;;;;4.40;1.60;;;;;;;;;;5105717;28;20505;-54
2021/08/09 08:50:24;;;;;;;3.33;1.60;;;;;;;;;;5112325;28;20511;-56
2021/08/09 08:53:04;;;;;;;4.97;1.90;;;;;;;;;;5112284;28;20469;-57
2021/08/09 08:55:33;;;;;;;5.27;2.40;;;;;;;;;;5112314;28;20782;-56
2021/08/09 08:58:01;;;;;;;3.50;1.93;;;;;;;;;;5111606;28;20487;-57
2021/08/09 09:00:41;;;;;;;6.70;2.20;;;;;;;;;;5112191;28;20547;-57
2021/08/09 09:03:18;;;;;;;5.73;2.27;;;;;;;;;;5112474;28;20494;-56
2021/08/09 09:06:00;;;;;;;4.53;2.20;;;;;;;;;;5112569;28;20459;-58
2021/08/09 09:08:43;;;;;;;3.50;1.60;;;;;;;;;;5112037;28;20454;-56
2021/08/09 09:11:17;;;;;;;5.90;1.70;;;;;;;;;;5112526;28;20570;-60
2021/08/09 09:16:50;;;;;;;5.03;1.30;;;;;;;;;;5061900;28;20486;-52
2021/08/09 09:19:30;;;;;;;10.17;3.87;;;;;;;;;;5088370;28;20467;-56
2021/08/09 09:22:08;;;;;;;4.53;2.10;;;;;;;;;;5096179;28;20490;-58
2021/08/09 09:24:36;;;;;;;5.40;1.83;;;;;;;;;;5107553;28;20447;-54
2021/08/09 09:27:08;;;;;;;9.43;2.20;;;;;;;;;;5116418;28;20461;-56
2021/08/09 09:29:56;;;;;;;3.30;1.20;;;;;;;;;;5116128;28;20455;-51
2021/08/09 09:32:25;;;;;;;4.37;1.43;;;;;;;;;;5104607;28;20456;-58
2021/08/09 09:34:59;;;;;;;7.57;2.40;;;;;;;;;;5095327;28;20474;-54
2021/08/09 09:37:36;;;;;;;9.00;4.80;;;;;;;;;;5106211;28;20466;-55
2021/08/09 09:40:08;;;;;;;3.37;1.40;;;;;;;;;;5091282;28;20448;-58
2021/08/09 09:42:39;;;;;;;5.23;1.70;;;;;;;;;;5100728;28;20452;-56
2021/08/09 09:45:44;;;;;;;5.00;1.67;;;;;;;;;;5097990;28;20482;-53
2021/08/09 09:48:13;;;;;;;7.77;2.53;;;;;;;;;;5115022;28;20504;-54
2021/08/09 09:50:42;;;;;;;4.40;1.90;;;;;;;;;;5114038;28;20486;-55
2021/08/09 09:53:19;;;;;;;6.20;1.80;;;;;;;;;;5110904;28;20478;-54
2021/08/09 09:55:49;;;;;;;4.33;2.10;;;;;;;;;;5104297;28;20543;-56
2021/08/09 09:58:18;;;;;;;4.73;1.90;;;;;;;;;;5103107;28;20483;-54
2021/08/09 10:00:49;;;;;;;3.70;1.33;;;;;;;;;;5113287;28;20458;-57
2021/08/09 10:03:17;;;;;;;8.17;1.43;;;;;;;;;;5104386;28;20498;-59
2021/08/09 10:05:47;;;;;;;9.33;2.03;;;;;;;;;;5114759;28;20451;-58
2021/08/09 10:08:21;;;;;;;7.17;2.00;;;;;;;;;;5115039;28;20478;-59
2021/08/09 10:11:01;;;;;;;4.83;1.70;;;;;;;;;;5114233;28;20466;-58
2021/08/09 10:13:57;;;;;;;3.87;1.50;;;;;;;;;;5111370;28;20470;-58
2021/08/09 10:16:30;;;;;;;3.77;1.70;;;;;;;;;;5114844;28;20489;-56
2021/08/09 10:18:58;;;;;;;5.63;1.83;;;;;;;;;;5114197;28;20487;-58
2021/08/09 10:21:37;;;;;;;2.90;1.33;;;;;;;;;;5113110;28;20463;-55
2021/08/09 10:24:05;;;;;;;4.20;1.53;;;;;;;;;;5111184;28;20506;-58
2021/08/09 10:26:49;;;;;;;7.57;1.70;;;;;;;;;;5113548;28;20526;-57
2021/08/09 10:29:18;;;;;;;8.13;1.33;;;;;;;;;;5091224;28;20463;-55
2021/08/09 10:31:48;;;;;;;3.30;1.47;;;;;;;;;;5106349;28;20848;-55
2021/08/09 10:37:22;;;;;;;3.10;1.40;;;;;;;;;;5093276;28;20470;-57
2021/08/09 10:39:58;;;;;;;2.97;1.43;;;;;;;;;;5075536;28;20482;-53
2021/08/09 10:42:42;;;;;;;7.33;1.53;;;;;;;;;;5105097;28;20469;-54
2021/08/09 10:45:12;;;;;;;3.73;1.50;;;;;;;;;;5111178;28;20498;-57
2021/08/09 10:47:50;;;;;;;5.40;1.67;;;;;;;;;;5112728;28;20501;-57
2021/08/09 10:50:39;;;;;;;5.30;1.60;;;;;;;;;;5094937;28;20475;-57
2021/08/09 10:53:35;;;;;;;4.27;2.30;;;;;;;;;;5112768;28;20488;-57
2021/08/09 10:56:11;;;;;;;5.17;1.70;;;;;;;;;;5113429;28;20467;-59
2021/08/09 10:58:57;;;;;;;5.60;2.07;;;;;;;;;;5114369;28;20544;-57
2021/08/09 11:01:48;;;;;;;4.60;1.60;;;;;;;;;;5112797;28;20451;-54
2021/08/09 11:04:19;;;;;;;3.70;1.77;;;;;;;;;;5112866;28;20467;-58
2021/08/09 11:06:52;;;;;;;4.60;2.10;;;;;;;;;;5113357;28;20447;-57
2021/08/09 11:09:41;;;;;;;4.20;1.70;;;;;;;;;;5101230;28;20460;-52
2021/08/09 11:12:13;;;;;;;4.83;1.40;;;;;;;;;;5091865;28;20440;-54
2021/08/09 11:14:59;;;;;;;3.80;1.30;;;;;;;;;;5099428;28;20491;-60
2021/08/09 11:17:31;;;;;;;4.13;1.20;;;;;;;;;;5097972;28;20499;-61
2021/08/09 11:20:10;;;;;;;5.33;2.03;;;;;;;;;;5118974;28;20458;-54
2021/08/09 11:22:38;;;;;;;3.93;1.23;;;;;;;;;;5114049;28;20476;-54
2021/08/09 11:25:24;;;;;;;5.97;2.53;;;;;;;;;;5095625;28;20453;-58
2021/08/09 11:27:59;;;;;;;10.53;1.57;;;;;;;;;;5096586;28;20469;-57
2021/08/09 11:30:40;;;;;;;3.60;1.57;;;;;;;;;;5112863;28;20466;-52
2021/08/09 11:33:09;;;;;;;3.43;1.43;;;;;;;;;;5096402;28;21073;-56
2021/08/09 11:35:45;;;;;;;3.07;1.50;;;;;;;;;;5103794;28;20466;-55
2021/08/09 11:38:14;;;;;;;3.70;1.60;;;;;;;;;;5100666;28;20495;-57
2021/08/09 11:40:44;;;;;;;6.00;2.40;;;;;;;;;;5105368;28;20464;-55
2021/08/09 11:43:16;;;;;;;9.30;2.47;;;;;;;;;;5110183;28;20459;-56
2021/08/09 11:45:51;;;;;;;5.73;2.20;;;;;;;;;;5108491;28;20498;-54
2021/08/09 11:48:26;;;;;;;4.37;1.80;;;;;;;;;;5111618;28;20659;-56
2021/08/09 11:50:56;;;;;;;5.37;2.10;;;;;;;;;;5111507;28;20469;-53
2021/08/09 11:53:27;;;;;;;7.53;2.03;;;;;;;;;;5107355;28;20451;-60
2021/08/09 11:58:58;;;;;;;7.80;3.70;;;;;;;;;;5111689;28;20488;-58
2021/08/09 12:01:34;;;;;;;3.47;1.60;;;;;;;;;;5096259;28;20527;-56
2021/08/09 12:04:28;;;;;;;3.80;1.50;;;;;;;;;;5111918;28;20476;-55
2021/08/09 12:06:56;;;;;;;4.70;2.10;;;;;;;;;;5111580;28;20484;-59
2021/08/09 12:09:38;;;;;;;7.57;1.70;;;;;;;;;;5110122;28;20455;-55
2021/08/09 12:12:06;;;;;;;4.70;2.23;;;;;;;;;;5110804;28;20462;-56
2021/08/09 12:14:35;;;;;;;4.37;1.87;;;;;;;;;;5110024;28;20468;-55
2021/08/09 12:17:24;;;;;;;3.20;1.40;;;;;;;;;;5093220;28;20460;-54
2021/08/09 12:19:54;;;;;;;3.63;1.40;;;;;;;;;;5107371;28;20464;-58
2021/08/09 12:22:25;;;;;;;5.53;1.63;;;;;;;;;;5109801;28;20551;-57
2021/08/09 12:25:12;;;;;;;7.27;2.70;;;;;;;;;;5110979;28;20466;-53
2021/08/09 12:27:39;;;;;;;6.50;2.30;;;;;;;;;;5110207;28;20653;-53
2021/08/09 12:30:09;;;;;;;5.70;1.80;;;;;;;;;;5091161;28;20448;-57
2021/08/09 12:32:44;;;;;;;8.20;2.20;;;;;;;;;;5092232;28;20475;-51
2021/08/09 12:35:15;;;;;;;5.20;2.40;;;;;;;;;;5095422;28;20484;-56
2021/08/09 12:37:43;;;;;;;6.57;2.50;;;;;;;;;;5110715;28;20559;-58
2021/08/09 12:40:18;;;;;;;6.60;3.93;;;;;;;;;;5111167;28;20494;-55
2021/08/09 12:43:02;;;;;;;3.53;1.70;;;;;;;;;;5077198;28;20460;-57
2021/08/09 12:45:50;;;;;;;6.47;2.00;;;;;;;;;;5089719;28;20461;-57
2021/08/09 12:48:19;;;;;;;4.40;2.40;;;;;;;;;;5088936;28;20475;-56
2021/08/09 12:50:48;;;;;;;5.07;1.60;;;;;;;;;;5080548;28;20466;-57
2021/08/09 12:53:17;;;;;;;6.67;4.00;;;;;;;;;;5091435;28;20448;-57
2021/08/09 12:55:45;;;;;;;6.83;3.90;;;;;;;;;;5099502;28;20501;-55
2021/08/09 12:58:23;;;;;;;2.77;1.33;;;;;;;;;;5113842;28;20486;-57
2021/08/09 13:00:51;;;;;;;3.53;1.57;;;;;;;;;;5112863;28;20528;-56
2021/08/09 13:03:18;;;;;;;4.87;2.23;;;;;;;;;;5112905;28;20455;-59
2021/08/09 13:05:53;;;;;;;8.17;2.70;;;;;;;;;;5113764;28;20451;-55
2021/08/09 13:08:23;;;;;;;5.87;2.20;;;;;;;;;;5101188;28;20456;-59
2021/08/09 13:10:51;;;;;;;4.23;1.87;;;;;;;;;;5111027;28;20463;-58
2021/08/09 13:13:18;;;;;;;8.30;2.50;;;;;;;;;;5112010;28;20459;-58
2021/08/09 13:15:46;;;;;;;4.43;2.27;;;;;;;;;;5101325;28;20542;-56
2021/08/09 13:18:25;;;;;;;9.87;2.57;;;;;;;;;;5112535;28;20479;-54
2021/08/09 13:20:57;;;;;;;10.73;2.80;;;;;;;;;;5113401;28;20467;-54
2021/08/09 13:23:29;;;;;;;15.33;3.70;;;;;;;;;;5121068;28;20477;-55
2021/08/09 13:26:13;;;;;;;7.00;2.70;;;;;;;;;;5114440;28;20470;-56
2021/08/09 13:28:41;;;;;;;9.30;3.00;;;;;;;;;;5114372;28;20459;-57
2021/08/09 13:31:38;;;;;;;18.63;2.70;;;;;;;;;;5113381;28;20467;-58
2021/08/09 13:37:19;;;;;;;7.27;2.80;;;;;;;;;;5108021;28;20486;-57
2021/08/09 13:39:48;;;;;;;5.13;2.10;;;;;;;;;;5094980;28;20488;-52
2021/08/09 13:42:29;;;;;;;4.57;2.17;;;;;;;;;;5095426;28;20529;-57
2021/08/09 13:45:25;;;;;;;5.00;2.03;;;;;;;;;;5095319;28;20455;-56
2021/08/09 13:48:09;;;;;;;5.70;2.63;;;;;;;;;;5095397;28;20444;-57
2021/08/09 13:51:02;;;;;;;8.23;3.20;;;;;;;;;;5114731;28;20487;-57
2021/08/09 13:53:31;;;;;;;6.97;2.40;;;;;;;;;;5133647;28;20533;-57
2021/08/09 13:56:11;;;;;;;8.50;4.53;;;;;;;;;;5127019;28;20455;-56
2021/08/09 13:58:41;;;;;;;7.83;2.27;;;;;;;;;;5110393;28;20510;-56
2021/08/09 14:01:08;;;;;;;7.80;4.67;;;;;;;;;;5094479;28;20425;-52
2021/08/09 14:06:35;;;;;;;8.70;3.60;;;;;;;;;;5094934;28;20452;-55
2021/08/09 14:12:02;;;;;;;5.30;2.30;;;;;;;;;;5078508;28;20482;-56
2021/08/09 14:14:45;;;;;;;7.50;2.30;;;;;;;;;;5087497;28;20445;-53
2021/08/09 14:17:13;;;;;;;5.43;2.10;;;;;;;;;;5082084;28;20482;-56
2021/08/09 14:20:00;;;;;;;4.33;1.87;;;;;;;;;;5092938;28;20491;-55
2021/08/09 14:22:30;;;;;;;5.37;2.57;;;;;;;;;;5094505;28;20741;-53
2021/08/09 14:24:59;;;;;;;6.50;4.17;;;;;;;;;;5092650;28;20456;-56
2021/08/09 14:27:27;;;;;;;12.63;9.87;;;;;;;;;;5078445;28;20445;-54
2021/08/09 14:29:55;;;;;;;17.63;12.57;;;;;;;;;;5086408;28;20508;-54
2021/08/09 14:32:24;;;;;;;12.33;3.70;;;;;;;;;;5092378;28;20482;-52
2021/08/09 14:34:54;;;;;;;8.63;5.60;;;;;;;;;;5083413;28;20777;-54
2021/08/09 14:40:23;;;;;;;7.67;3.97;;;;;;;;;;5075749;28;20452;-55
2021/08/09 14:42:53;;;;;;;7.90;4.23;;;;;;;;;;5088359;28;20448;-55
2021/08/09 14:45:25;;;;;;;4.60;1.90;;;;;;;;;;5095381;28;20831;-54
2021/08/09 14:47:55;;;;;;;6.87;3.13;;;;;;;;;;5086830;28;20528;-57
2021/08/09 14:50:35;;;;;;;6.83;3.77;;;;;;;;;;5092199;28;20456;-54
2021/08/09 14:53:12;;;;;;;8.13;3.57;;;;;;;;;;5091388;28;20492;-53
2021/08/09 14:55:42;;;;;;;17.07;14.63;;;;;;;;;;5082730;28;20459;-57
2021/08/09 14:58:13;;;;;;;5.20;2.80;;;;;;;;;;5094947;28;20924;-55
2021/08/09 15:00:51;;;;;;;13.07;3.70;;;;;;;;;;5093854;28;20498;-57
2021/08/09 15:03:19;;;;;;;4.73;1.80;;;;;;;;;;5092635;28;20732;-51
2021/08/09 15:05:56;;;;;;;4.90;2.17;;;;;;;;;;5079836;28;20464;-57
2021/08/09 15:08:32;;;;;;;6.00;4.13;;;;;;;;;;5085469;28;20867;-55
2021/08/09 15:11:10;;;;;;;12.80;4.43;;;;;;;;;;5089901;28;20492;-51
2021/08/09 15:13:38;;;;;;;7.77;3.30;;;;;;;;;;5087202;28;20482;-58
2021/08/09 15:16:11;;;;;;;10.27;7.87;;;;;;;;;;5096848;28;20455;-57
2021/08/09 15:18:42;;;;;;;4.87;3.10;;;;;;;;;;5093303;28;20484;-54
2021/08/09 15:21:36;;;;;;;6.40;2.87;;;;;;;;;;5093867;28;20439;-55
2021/08/09 15:24:04;;;;;;;5.50;3.00;;;;;;;;;;5090421;28;20454;-56
2021/08/09 15:29:37;;;;;;;7.20;2.17;;;;;;;;;;5074731;28;20452;-57
2021/08/09 15:32:07;;;;;;;2.80;1.40;;;;;;;;;;5106352;28;20479;-53
2021/08/09 15:34:50;;;;;;;5.37;2.50;;;;;;;;;;5104660;28;20474;-56
2021/08/09 15:37:17;;;;;;;6.90;3.03;;;;;;;;;;5092349;28;20846;-55
2021/08/09 15:40:00;;;;;;;5.83;2.30;;;;;;;;;;5093284;28;20476;-56
2021/08/09 15:42:29;;;;;;;6.63;1.93;;;;;;;;;;5092718;28;20785;-55
2021/08/09 15:44:57;;;;;;;5.00;2.40;;;;;;;;;;5107802;28;20482;-54